sensor_id;sensor_type;location;lat;lon;timestamp;P1;durP1;ratioP1;P2;durP2;ratioP2
21281;SDS011;10800;53.096;18.328;2024-02-26T00:00:41;32.60;;;13.07;;
21281;SDS011;10800;53.096;18.328;2024-02-26T00:05:50;41.83;;;15.50;;
21281;SDS011;10800;53.096;18.328;2024-02-26T00:11:03;33.13;;;14.30;;
21281;SDS011;10800;53.096;18.328;2024-02-26T00:16:32;50.63;;;15.70;;
21281;SDS011;10800;53.096;18.328;2024-02-26T00:21:48;33.10;;;14.53;;
21281;SDS011;10800;53.096;18.328;2024-02-26T00:27:00;38.10;;;14.97;;
21281;SDS011;10800;53.096;18.328;2024-02-26T00:32:12;39.07;;;14.97;;
21281;SDS011;10800;53.096;18.328;2024-02-26T00:37:19;33.73;;;14.50;;
21281;SDS011;10800;53.096;18.328;2024-02-26T00:42:28;32.93;;;12.27;;
21281;SDS011;10800;53.096;18.328;2024-02-26T00:47:36;28.33;;;12.43;;
21281;SDS011;10800;53.096;18.328;2024-02-26T00:52:48;25.17;;;11.90;;
21281;SDS011;10800;53.096;18.328;2024-02-26T00:57:54;26.90;;;12.57;;
21281;SDS011;10800;53.096;18.328;2024-02-26T01:02:59;21.90;;;11.57;;
21281;SDS011;10800;53.096;18.328;2024-02-26T01:08:13;29.73;;;12.40;;
21281;SDS011;10800;53.096;18.328;2024-02-26T01:13:19;27.10;;;11.80;;
21281;SDS011;10800;53.096;18.328;2024-02-26T01:18:25;30.03;;;11.60;;
21281;SDS011;10800;53.096;18.328;2024-02-26T01:23:46;25.03;;;11.00;;
21281;SDS011;10800;53.096;18.328;2024-02-26T01:29:04;25.67;;;11.37;;
21281;SDS011;10800;53.096;18.328;2024-02-26T01:34:17;28.80;;;10.70;;
21281;SDS011;10800;53.096;18.328;2024-02-26T01:39:45;26.60;;;10.83;;
21281;SDS011;10800;53.096;18.328;2024-02-26T01:44:53;29.50;;;11.53;;
21281;SDS011;10800;53.096;18.328;2024-02-26T01:50:11;31.57;;;11.73;;
21281;SDS011;10800;53.096;18.328;2024-02-26T01:55:26;33.67;;;14.63;;
21281;SDS011;10800;53.096;18.328;2024-02-26T02:00:42;41.57;;;16.33;;
21281;SDS011;10800;53.096;18.328;2024-02-26T02:05:57;38.80;;;15.60;;
21281;SDS011;10800;53.096;18.328;2024-02-26T02:11:08;33.27;;;15.03;;
21281;SDS011;10800;53.096;18.328;2024-02-26T02:16:32;33.53;;;13.47;;
21281;SDS011;10800;53.096;18.328;2024-02-26T02:21:37;31.90;;;14.07;;
21281;SDS011;10800;53.096;18.328;2024-02-26T02:26:43;37.00;;;14.17;;
21281;SDS011;10800;53.096;18.328;2024-02-26T02:31:54;25.93;;;13.07;;
21281;SDS011;10800;53.096;18.328;2024-02-26T02:37:04;19.77;;;9.93;;
21281;SDS011;10800;53.096;18.328;2024-02-26T02:42:15;17.03;;;8.77;;
21281;SDS011;10800;53.096;18.328;2024-02-26T02:47:23;30.80;;;10.93;;
21281;SDS011;10800;53.096;18.328;2024-02-26T02:52:29;26.80;;;10.30;;
21281;SDS011;10800;53.096;18.328;2024-02-26T02:57:39;16.73;;;9.10;;
21281;SDS011;10800;53.096;18.328;2024-02-26T03:02:46;22.40;;;8.97;;
21281;SDS011;10800;53.096;18.328;2024-02-26T03:08:15;18.87;;;8.47;;
21281;SDS011;10800;53.096;18.328;2024-02-26T03:13:43;20.73;;;9.20;;
21281;SDS011;10800;53.096;18.328;2024-02-26T03:18:55;29.40;;;10.23;;
21281;SDS011;10800;53.096;18.328;2024-02-26T03:24:01;21.67;;;9.63;;
21281;SDS011;10800;53.096;18.328;2024-02-26T03:29:25;30.83;;;11.30;;
21281;SDS011;10800;53.096;18.328;2024-02-26T03:34:36;38.73;;;12.93;;
21281;SDS011;10800;53.096;18.328;2024-02-26T03:39:53;27.60;;;10.67;;
21281;SDS011;10800;53.096;18.328;2024-02-26T03:45:04;23.17;;;11.43;;
21281;SDS011;10800;53.096;18.328;2024-02-26T03:50:13;23.63;;;10.73;;
21281;SDS011;10800;53.096;18.328;2024-02-26T03:55:22;26.20;;;11.00;;
21281;SDS011;10800;53.096;18.328;2024-02-26T04:00:31;29.67;;;9.73;;
21281;SDS011;10800;53.096;18.328;2024-02-26T04:05:40;27.97;;;10.57;;
21281;SDS011;10800;53.096;18.328;2024-02-26T04:10:58;34.27;;;11.30;;
21281;SDS011;10800;53.096;18.328;2024-02-26T04:21:51;33.57;;;12.13;;
21281;SDS011;10800;53.096;18.328;2024-02-26T04:27:20;19.73;;;9.67;;
21281;SDS011;10800;53.096;18.328;2024-02-26T04:32:26;22.67;;;9.87;;
21281;SDS011;10800;53.096;18.328;2024-02-26T04:37:36;32.43;;;12.83;;
21281;SDS011;10800;53.096;18.328;2024-02-26T04:42:46;20.80;;;8.77;;
21281;SDS011;10800;53.096;18.328;2024-02-26T04:47:52;28.73;;;10.17;;
21281;SDS011;10800;53.096;18.328;2024-02-26T04:53:09;20.27;;;10.03;;
21281;SDS011;10800;53.096;18.328;2024-02-26T04:58:21;22.07;;;10.43;;
21281;SDS011;10800;53.096;18.328;2024-02-26T05:03:23;24.03;;;9.83;;
21281;SDS011;10800;53.096;18.328;2024-02-26T05:08:36;23.80;;;9.90;;
21281;SDS011;10800;53.096;18.328;2024-02-26T05:13:47;16.67;;;9.03;;
21281;SDS011;10800;53.096;18.328;2024-02-26T05:18:59;22.77;;;9.13;;
21281;SDS011;10800;53.096;18.328;2024-02-26T05:24:07;17.17;;;8.63;;
21281;SDS011;10800;53.096;18.328;2024-02-26T05:34:28;29.50;;;11.57;;
21281;SDS011;10800;53.096;18.328;2024-02-26T05:39:37;25.10;;;10.63;;
21281;SDS011;10800;53.096;18.328;2024-02-26T05:44:45;25.13;;;9.87;;
21281;SDS011;10800;53.096;18.328;2024-02-26T05:49:51;27.30;;;10.23;;
21281;SDS011;10800;53.096;18.328;2024-02-26T05:55:00;34.00;;;10.70;;
21281;SDS011;10800;53.096;18.328;2024-02-26T06:00:09;29.00;;;11.53;;
21281;SDS011;10800;53.096;18.328;2024-02-26T06:05:21;28.73;;;13.13;;
21281;SDS011;10800;53.096;18.328;2024-02-26T06:10:35;26.70;;;11.90;;
21281;SDS011;10800;53.096;18.328;2024-02-26T06:15:44;31.87;;;12.17;;
21281;SDS011;10800;53.096;18.328;2024-02-26T06:20:50;24.57;;;10.43;;
21281;SDS011;10800;53.096;18.328;2024-02-26T06:25:59;30.47;;;11.67;;
21281;SDS011;10800;53.096;18.328;2024-02-26T06:31:11;26.47;;;13.13;;
21281;SDS011;10800;53.096;18.328;2024-02-26T06:36:20;29.30;;;12.37;;
21281;SDS011;10800;53.096;18.328;2024-02-26T06:42:04;37.17;;;14.90;;
21281;SDS011;10800;53.096;18.328;2024-02-26T06:48:01;28.17;;;12.30;;
21281;SDS011;10800;53.096;18.328;2024-02-26T06:53:17;28.83;;;12.10;;
21281;SDS011;10800;53.096;18.328;2024-02-26T06:58:28;26.57;;;11.50;;
21281;SDS011;10800;53.096;18.328;2024-02-26T07:03:41;35.30;;;12.63;;
21281;SDS011;10800;53.096;18.328;2024-02-26T07:08:49;33.80;;;12.93;;
21281;SDS011;10800;53.096;18.328;2024-02-26T07:13:55;32.57;;;13.87;;
21281;SDS011;10800;53.096;18.328;2024-02-26T07:19:00;38.43;;;15.53;;
21281;SDS011;10800;53.096;18.328;2024-02-26T07:24:06;40.20;;;15.73;;
21281;SDS011;10800;53.096;18.328;2024-02-26T07:29:12;31.83;;;13.93;;
21281;SDS011;10800;53.096;18.328;2024-02-26T07:34:20;33.53;;;15.40;;
21281;SDS011;10800;53.096;18.328;2024-02-26T07:39:31;43.00;;;17.63;;
21281;SDS011;10800;53.096;18.328;2024-02-26T07:44:53;36.13;;;16.80;;
21281;SDS011;10800;53.096;18.328;2024-02-26T07:50:07;30.50;;;15.43;;
21281;SDS011;10800;53.096;18.328;2024-02-26T07:55:22;36.23;;;14.70;;
21281;SDS011;10800;53.096;18.328;2024-02-26T08:00:33;30.13;;;14.40;;
21281;SDS011;10800;53.096;18.328;2024-02-26T08:05:43;33.60;;;15.23;;
21281;SDS011;10800;53.096;18.328;2024-02-26T08:11:00;35.77;;;13.43;;
21281;SDS011;10800;53.096;18.328;2024-02-26T08:16:12;31.43;;;12.87;;
21281;SDS011;10800;53.096;18.328;2024-02-26T08:21:25;28.37;;;13.63;;
21281;SDS011;10800;53.096;18.328;2024-02-26T08:26:40;31.70;;;13.93;;
21281;SDS011;10800;53.096;18.328;2024-02-26T08:31:51;35.27;;;14.00;;
21281;SDS011;10800;53.096;18.328;2024-02-26T08:36:57;25.00;;;13.50;;
21281;SDS011;10800;53.096;18.328;2024-02-26T08:42:06;28.30;;;14.43;;
21281;SDS011;10800;53.096;18.328;2024-02-26T08:47:19;32.87;;;14.47;;
21281;SDS011;10800;53.096;18.328;2024-02-26T08:52:28;35.87;;;15.27;;
21281;SDS011;10800;53.096;18.328;2024-02-26T08:57:33;35.43;;;16.93;;
21281;SDS011;10800;53.096;18.328;2024-02-26T09:02:41;34.80;;;14.53;;
21281;SDS011;10800;53.096;18.328;2024-02-26T09:07:50;28.70;;;15.00;;
21281;SDS011;10800;53.096;18.328;2024-02-26T09:13:01;30.97;;;13.83;;
21281;SDS011;10800;53.096;18.328;2024-02-26T09:18:16;39.70;;;17.63;;
21281;SDS011;10800;53.096;18.328;2024-02-26T09:23:32;36.00;;;17.93;;
21281;SDS011;10800;53.096;18.328;2024-02-26T09:28:45;67.23;;;40.13;;
21281;SDS011;10800;53.096;18.328;2024-02-26T09:33:52;26.93;;;12.33;;
21281;SDS011;10800;53.096;18.328;2024-02-26T09:39:07;30.50;;;13.07;;
21281;SDS011;10800;53.096;18.328;2024-02-26T09:44:20;27.83;;;12.70;;
21281;SDS011;10800;53.096;18.328;2024-02-26T09:49:31;32.27;;;13.70;;
21281;SDS011;10800;53.096;18.328;2024-02-26T09:54:39;22.83;;;11.10;;
21281;SDS011;10800;53.096;18.328;2024-02-26T09:59:50;27.10;;;11.03;;
21281;SDS011;10800;53.096;18.328;2024-02-26T10:05:04;22.00;;;10.03;;
21281;SDS011;10800;53.096;18.328;2024-02-26T10:10:21;24.30;;;10.00;;
21281;SDS011;10800;53.096;18.328;2024-02-26T10:15:31;26.03;;;11.03;;
21281;SDS011;10800;53.096;18.328;2024-02-26T10:21:00;23.20;;;10.07;;
21281;SDS011;10800;53.096;18.328;2024-02-26T10:26:10;20.73;;;11.07;;
21281;SDS011;10800;53.096;18.328;2024-02-26T10:31:18;22.43;;;10.57;;
21281;SDS011;10800;53.096;18.328;2024-02-26T10:36:27;27.80;;;10.77;;
21281;SDS011;10800;53.096;18.328;2024-02-26T10:41:42;25.90;;;11.20;;
21281;SDS011;10800;53.096;18.328;2024-02-26T10:47:09;24.53;;;10.93;;
21281;SDS011;10800;53.096;18.328;2024-02-26T10:52:17;21.57;;;11.03;;
21281;SDS011;10800;53.096;18.328;2024-02-26T10:57:29;25.30;;;12.00;;
21281;SDS011;10800;53.096;18.328;2024-02-26T11:02:44;21.90;;;10.17;;
21281;SDS011;10800;53.096;18.328;2024-02-26T11:07:56;24.90;;;9.07;;
21281;SDS011;10800;53.096;18.328;2024-02-26T11:13:02;28.03;;;11.00;;
21281;SDS011;10800;53.096;18.328;2024-02-26T11:18:15;27.37;;;10.90;;
21281;SDS011;10800;53.096;18.328;2024-02-26T11:23:23;23.87;;;9.77;;
21281;SDS011;10800;53.096;18.328;2024-02-26T11:28:33;20.07;;;9.57;;
21281;SDS011;10800;53.096;18.328;2024-02-26T11:33:42;24.57;;;10.70;;
21281;SDS011;10800;53.096;18.328;2024-02-26T11:38:55;23.90;;;9.20;;
21281;SDS011;10800;53.096;18.328;2024-02-26T11:44:03;20.27;;;9.30;;
21281;SDS011;10800;53.096;18.328;2024-02-26T11:54:47;17.33;;;8.80;;
21281;SDS011;10800;53.096;18.328;2024-02-26T12:00:16;12.13;;;5.70;;
21281;SDS011;10800;53.096;18.328;2024-02-26T12:05:48;11.43;;;6.50;;
21281;SDS011;10800;53.096;18.328;2024-02-26T12:11:04;15.23;;;8.13;;
21281;SDS011;10800;53.096;18.328;2024-02-26T12:16:59;9.20;;;4.83;;
21281;SDS011;10800;53.096;18.328;2024-02-26T12:22:24;8.07;;;4.53;;
21281;SDS011;10800;53.096;18.328;2024-02-26T12:27:31;11.03;;;4.53;;
21281;SDS011;10800;53.096;18.328;2024-02-26T12:32:46;11.27;;;4.13;;
21281;SDS011;10800;53.096;18.328;2024-02-26T12:37:58;12.17;;;4.93;;
21281;SDS011;10800;53.096;18.328;2024-02-26T12:43:10;14.27;;;5.37;;
21281;SDS011;10800;53.096;18.328;2024-02-26T12:48:16;12.03;;;5.73;;
21281;SDS011;10800;53.096;18.328;2024-02-26T12:53:28;11.77;;;4.77;;
21281;SDS011;10800;53.096;18.328;2024-02-26T12:58:38;6.93;;;4.13;;
21281;SDS011;10800;53.096;18.328;2024-02-26T13:03:48;11.77;;;5.60;;
21281;SDS011;10800;53.096;18.328;2024-02-26T13:09:01;13.83;;;6.47;;
21281;SDS011;10800;53.096;18.328;2024-02-26T13:14:08;14.80;;;8.87;;
21281;SDS011;10800;53.096;18.328;2024-02-26T13:19:30;8.93;;;4.60;;
21281;SDS011;10800;53.096;18.328;2024-02-26T13:24:38;8.20;;;4.30;;
21281;SDS011;10800;53.096;18.328;2024-02-26T13:29:48;10.77;;;4.90;;
21281;SDS011;10800;53.096;18.328;2024-02-26T13:35:07;10.87;;;6.13;;
21281;SDS011;10800;53.096;18.328;2024-02-26T13:40:31;8.83;;;4.20;;
21281;SDS011;10800;53.096;18.328;2024-02-26T13:45:39;11.07;;;5.40;;
21281;SDS011;10800;53.096;18.328;2024-02-26T13:50:47;9.20;;;5.00;;
21281;SDS011;10800;53.096;18.328;2024-02-26T13:55:54;11.20;;;4.87;;
21281;SDS011;10800;53.096;18.328;2024-02-26T14:01:04;10.90;;;5.63;;
21281;SDS011;10800;53.096;18.328;2024-02-26T14:06:10;13.17;;;5.50;;
21281;SDS011;10800;53.096;18.328;2024-02-26T14:11:16;12.17;;;5.37;;
21281;SDS011;10800;53.096;18.328;2024-02-26T14:16:26;8.43;;;4.77;;
21281;SDS011;10800;53.096;18.328;2024-02-26T14:21:36;13.03;;;5.90;;
21281;SDS011;10800;53.096;18.328;2024-02-26T14:26:44;15.53;;;6.83;;
21281;SDS011;10800;53.096;18.328;2024-02-26T14:31:53;14.03;;;7.73;;
21281;SDS011;10800;53.096;18.328;2024-02-26T14:37:01;23.63;;;10.67;;
21281;SDS011;10800;53.096;18.328;2024-02-26T14:42:06;20.90;;;9.40;;
21281;SDS011;10800;53.096;18.328;2024-02-26T14:47:12;13.23;;;6.47;;
21281;SDS011;10800;53.096;18.328;2024-02-26T14:52:18;13.13;;;6.63;;
21281;SDS011;10800;53.096;18.328;2024-02-26T14:57:24;11.57;;;5.97;;
21281;SDS011;10800;53.096;18.328;2024-02-26T15:02:30;19.47;;;6.77;;
21281;SDS011;10800;53.096;18.328;2024-02-26T15:07:36;14.83;;;6.73;;
21281;SDS011;10800;53.096;18.328;2024-02-26T15:12:43;14.93;;;5.97;;
21281;SDS011;10800;53.096;18.328;2024-02-26T15:17:48;15.33;;;7.40;;
21281;SDS011;10800;53.096;18.328;2024-02-26T15:22:55;15.40;;;8.03;;
21281;SDS011;10800;53.096;18.328;2024-02-26T15:28:01;11.43;;;6.40;;
21281;SDS011;10800;53.096;18.328;2024-02-26T15:33:06;12.33;;;6.67;;
21281;SDS011;10800;53.096;18.328;2024-02-26T15:38:12;17.90;;;7.63;;
21281;SDS011;10800;53.096;18.328;2024-02-26T15:43:18;16.47;;;7.20;;
21281;SDS011;10800;53.096;18.328;2024-02-26T15:48:25;18.27;;;7.43;;
21281;SDS011;10800;53.096;18.328;2024-02-26T15:53:30;21.33;;;8.53;;
21281;SDS011;10800;53.096;18.328;2024-02-26T15:58:36;19.33;;;8.77;;
21281;SDS011;10800;53.096;18.328;2024-02-26T16:03:41;19.77;;;8.23;;
21281;SDS011;10800;53.096;18.328;2024-02-26T16:08:47;24.03;;;9.70;;
21281;SDS011;10800;53.096;18.328;2024-02-26T16:13:55;23.73;;;10.10;;
21281;SDS011;10800;53.096;18.328;2024-02-26T16:19:09;31.07;;;12.17;;
21281;SDS011;10800;53.096;18.328;2024-02-26T16:24:20;18.90;;;9.67;;
21281;SDS011;10800;53.096;18.328;2024-02-26T16:29:26;23.87;;;9.40;;
21281;SDS011;10800;53.096;18.328;2024-02-26T16:34:31;28.07;;;11.60;;
21281;SDS011;10800;53.096;18.328;2024-02-26T16:39:42;31.43;;;11.90;;
21281;SDS011;10800;53.096;18.328;2024-02-26T16:44:50;25.63;;;12.13;;
21281;SDS011;10800;53.096;18.328;2024-02-26T16:49:55;26.37;;;11.23;;
21281;SDS011;10800;53.096;18.328;2024-02-26T16:55:01;26.20;;;12.80;;
21281;SDS011;10800;53.096;18.328;2024-02-26T17:00:09;25.27;;;11.63;;
21281;SDS011;10800;53.096;18.328;2024-02-26T17:05:17;27.10;;;11.73;;
21281;SDS011;10800;53.096;18.328;2024-02-26T17:10:22;35.93;;;14.27;;
21281;SDS011;10800;53.096;18.328;2024-02-26T17:15:28;34.40;;;13.17;;
21281;SDS011;10800;53.096;18.328;2024-02-26T17:20:34;34.10;;;13.80;;
21281;SDS011;10800;53.096;18.328;2024-02-26T17:25:41;29.90;;;13.17;;
21281;SDS011;10800;53.096;18.328;2024-02-26T17:30:47;33.10;;;15.20;;
21281;SDS011;10800;53.096;18.328;2024-02-26T17:35:52;39.07;;;14.80;;
21281;SDS011;10800;53.096;18.328;2024-02-26T17:40:58;36.23;;;15.30;;
21281;SDS011;10800;53.096;18.328;2024-02-26T17:46:03;30.93;;;15.40;;
21281;SDS011;10800;53.096;18.328;2024-02-26T17:51:09;37.77;;;17.17;;
21281;SDS011;10800;53.096;18.328;2024-02-26T17:56:15;39.73;;;14.83;;
21281;SDS011;10800;53.096;18.328;2024-02-26T18:01:20;40.50;;;15.83;;
21281;SDS011;10800;53.096;18.328;2024-02-26T18:06:27;40.73;;;17.33;;
21281;SDS011;10800;53.096;18.328;2024-02-26T18:11:33;39.00;;;16.77;;
21281;SDS011;10800;53.096;18.328;2024-02-26T18:16:38;41.13;;;17.53;;
21281;SDS011;10800;53.096;18.328;2024-02-26T18:21:44;38.03;;;16.83;;
21281;SDS011;10800;53.096;18.328;2024-02-26T18:26:49;48.83;;;18.27;;
21281;SDS011;10800;53.096;18.328;2024-02-26T18:31:56;61.67;;;22.27;;
21281;SDS011;10800;53.096;18.328;2024-02-26T18:37:01;57.40;;;21.70;;
21281;SDS011;10800;53.096;18.328;2024-02-26T18:42:07;48.43;;;18.00;;
21281;SDS011;10800;53.096;18.328;2024-02-26T18:47:24;32.90;;;15.97;;
21281;SDS011;10800;53.096;18.328;2024-02-26T18:52:56;34.57;;;16.53;;
21281;SDS011;10800;53.096;18.328;2024-02-26T18:58:16;41.17;;;16.83;;
21281;SDS011;10800;53.096;18.328;2024-02-26T19:03:23;38.83;;;15.60;;
21281;SDS011;10800;53.096;18.328;2024-02-26T19:08:34;35.10;;;15.33;;
21281;SDS011;10800;53.096;18.328;2024-02-26T19:14:07;38.57;;;15.70;;
21281;SDS011;10800;53.096;18.328;2024-02-26T19:24:29;39.10;;;16.50;;
21281;SDS011;10800;53.096;18.328;2024-02-26T19:29:34;37.37;;;15.97;;
21281;SDS011;10800;53.096;18.328;2024-02-26T19:34:40;48.93;;;17.30;;
21281;SDS011;10800;53.096;18.328;2024-02-26T19:39:54;37.73;;;17.13;;
21281;SDS011;10800;53.096;18.328;2024-02-26T19:45:04;40.67;;;16.23;;
21281;SDS011;10800;53.096;18.328;2024-02-26T19:50:14;41.67;;;15.87;;
21281;SDS011;10800;53.096;18.328;2024-02-26T19:56:07;42.90;;;17.10;;
21281;SDS011;10800;53.096;18.328;2024-02-26T20:01:22;41.17;;;16.80;;
21281;SDS011;10800;53.096;18.328;2024-02-26T20:06:29;35.60;;;15.27;;
21281;SDS011;10800;53.096;18.328;2024-02-26T20:12:03;34.83;;;15.77;;
21281;SDS011;10800;53.096;18.328;2024-02-26T20:17:31;36.63;;;15.57;;
21281;SDS011;10800;53.096;18.328;2024-02-26T20:22:42;37.83;;;15.47;;
21281;SDS011;10800;53.096;18.328;2024-02-26T20:27:56;36.70;;;18.07;;
21281;SDS011;10800;53.096;18.328;2024-02-26T20:33:03;48.77;;;16.93;;
21281;SDS011;10800;53.096;18.328;2024-02-26T20:38:13;40.73;;;17.00;;
21281;SDS011;10800;53.096;18.328;2024-02-26T20:43:25;30.23;;;15.57;;
21281;SDS011;10800;53.096;18.328;2024-02-26T20:48:33;36.37;;;16.10;;
21281;SDS011;10800;53.096;18.328;2024-02-26T20:53:40;37.13;;;14.77;;
21281;SDS011;10800;53.096;18.328;2024-02-26T20:58:47;31.13;;;13.90;;
21281;SDS011;10800;53.096;18.328;2024-02-26T21:04:02;37.73;;;15.47;;
21281;SDS011;10800;53.096;18.328;2024-02-26T21:09:08;35.57;;;14.60;;
21281;SDS011;10800;53.096;18.328;2024-02-26T21:14:13;34.13;;;13.93;;
21281;SDS011;10800;53.096;18.328;2024-02-26T21:19:20;32.63;;;15.17;;
21281;SDS011;10800;53.096;18.328;2024-02-26T21:24:31;26.03;;;11.87;;
21281;SDS011;10800;53.096;18.328;2024-02-26T21:29:38;29.33;;;12.77;;
21281;SDS011;10800;53.096;18.328;2024-02-26T21:34:46;32.90;;;13.07;;
21281;SDS011;10800;53.096;18.328;2024-02-26T21:40:16;28.00;;;11.80;;
21281;SDS011;10800;53.096;18.328;2024-02-26T21:45:27;27.70;;;12.33;;
21281;SDS011;10800;53.096;18.328;2024-02-26T21:50:37;24.60;;;12.50;;
21281;SDS011;10800;53.096;18.328;2024-02-26T21:55:53;33.07;;;13.23;;
21281;SDS011;10800;53.096;18.328;2024-02-26T22:00:59;27.43;;;13.20;;
21281;SDS011;10800;53.096;18.328;2024-02-26T22:06:05;25.43;;;12.17;;
21281;SDS011;10800;53.096;18.328;2024-02-26T22:11:19;35.97;;;12.53;;
21281;SDS011;10800;53.096;18.328;2024-02-26T22:16:27;31.57;;;12.90;;
21281;SDS011;10800;53.096;18.328;2024-02-26T22:21:38;22.37;;;11.60;;
21281;SDS011;10800;53.096;18.328;2024-02-26T22:26:52;30.37;;;13.70;;
21281;SDS011;10800;53.096;18.328;2024-02-26T22:32:01;33.57;;;13.30;;
21281;SDS011;10800;53.096;18.328;2024-02-26T22:37:10;26.80;;;12.50;;
21281;SDS011;10800;53.096;18.328;2024-02-26T22:42:25;28.57;;;13.73;;
21281;SDS011;10800;53.096;18.328;2024-02-26T22:47:49;28.30;;;13.53;;
21281;SDS011;10800;53.096;18.328;2024-02-26T22:53:00;30.07;;;13.93;;
21281;SDS011;10800;53.096;18.328;2024-02-26T22:58:30;29.57;;;12.93;;
21281;SDS011;10800;53.096;18.328;2024-02-26T23:03:40;29.67;;;12.57;;
21281;SDS011;10800;53.096;18.328;2024-02-26T23:09:01;29.07;;;13.63;;
21281;SDS011;10800;53.096;18.328;2024-02-26T23:14:30;26.73;;;12.70;;
21281;SDS011;10800;53.096;18.328;2024-02-26T23:19:37;45.50;;;15.67;;
21281;SDS011;10800;53.096;18.328;2024-02-26T23:24:47;36.73;;;14.07;;
21281;SDS011;10800;53.096;18.328;2024-02-26T23:30:15;33.43;;;15.20;;
21281;SDS011;10800;53.096;18.328;2024-02-26T23:35:27;35.50;;;14.67;;
21281;SDS011;10800;53.096;18.328;2024-02-26T23:40:40;43.30;;;16.87;;
21281;SDS011;10800;53.096;18.328;2024-02-26T23:45:49;45.40;;;17.20;;
21281;SDS011;10800;53.096;18.328;2024-02-26T23:50:57;42.70;;;16.97;;
21281;SDS011;10800;53.096;18.328;2024-02-26T23:56:37;38.30;;;15.80;;
